Time;durP1;ratioP1;P1;durP2;ratioP2;P2;SDS_P1;SDS_P2;PMS_P1;PMS_P2;Temp;Humidity;BMP_temperature;BMP_pressure;BME280_temperature;BME280_humidity;BME280_pressure;Samples;Min_cycle;Max_cycle;Signal;HPM_P1;HPM_P2
2021/05/09 00:02:12;;;;;;;6.53;5.05;;;;;;;8.41;49.43;96826.87;1786794;77;28162;-82
2021/05/09 00:04:46;;;;;;;5.42;4.80;;;;;;;8.46;48.98;96823.80;1791088;78;22232;-81
2021/05/09 00:07:22;;;;;;;6.40;4.90;;;;;;;8.45;49.33;96823.47;1828863;76;28141;-82
2021/05/09 00:09:58;;;;;;;5.40;3.72;;;;;;;8.48;49.75;96820.59;1808073;79;22473;-82
2021/05/09 00:12:35;;;;;;;4.87;4.37;;;;;;;8.39;50.07;96821.84;1781863;79;22471;-82
2021/05/09 00:15:11;;;;;;;5.53;4.33;;;;;;;8.37;49.52;96812.63;1798369;77;22684;-81
2021/05/09 00:17:45;;;;;;;6.22;4.92;;;;;;;8.34;50.35;96812.45;1786601;79;28331;-82
2021/05/09 00:20:20;;;;;;;5.35;3.87;;;;;;;8.41;50.14;96811.33;1819452;77;23176;-82
2021/05/09 00:22:57;;;;;;;6.08;4.60;;;;;;;8.41;49.97;96807.45;1788449;79;28135;-80
2021/05/09 00:25:35;;;;;;;6.35;4.55;;;;;;;8.49;50.67;96802.79;1818449;77;22501;-80
2021/05/09 00:28:11;;;;;;;4.10;2.95;;;;;;;8.50;49.97;96799.23;1781630;79;22526;-80
2021/05/09 00:30:46;;;;;;;5.05;3.45;;;;;;;8.50;50.13;96796.64;1819727;77;23173;-80
2021/05/09 00:33:22;;;;;;;4.75;3.65;;;;;;;8.51;50.41;96796.96;1768205;79;22658;-80
2021/05/09 00:35:58;;;;;;;5.87;4.90;;;;;;;8.49;50.53;96803.59;1741919;79;31053;-80
2021/05/09 00:38:37;;;;;;;5.67;4.62;;;;;;;8.53;50.27;96808.78;1789201;77;28347;-80
2021/05/09 00:41:11;;;;;;;6.28;4.85;;;;;;;8.63;50.05;96800.40;1828994;76;28373;-80
2021/05/09 00:43:53;;;;;;;4.92;3.92;;;;;;;8.71;49.82;96801.69;1807857;78;22223;-80
2021/05/09 00:46:29;;;;;;;5.83;4.70;;;;;;;8.71;49.92;96808.66;1792927;79;28061;-80
2021/05/09 00:49:06;;;;;;;4.42;3.30;;;;;;;8.81;49.78;96808.52;1814219;79;22392;-80
2021/05/09 00:51:42;;;;;;;5.28;4.22;;;;;;;8.78;50.04;96806.22;1760113;79;22448;-80
2021/05/09 00:54:19;;;;;;;4.95;3.67;;;;;;;8.72;49.92;96809.78;1819070;77;22810;-80
2021/05/09 00:56:56;;;;;;;6.25;4.10;;;;;;;8.67;50.10;96806.87;1811838;77;22619;-80
2021/05/09 00:59:33;;;;;;;4.47;3.58;;;;;;;8.64;50.37;96811.57;1818879;78;22990;-80
2021/05/09 01:02:07;;;;;;;5.60;3.90;;;;;;;8.60;50.08;96798.09;1829329;77;22880;-80
2021/05/09 01:04:45;;;;;;;4.83;3.67;;;;;;;8.59;50.09;96795.67;1798551;78;22314;-80
2021/05/09 01:07:18;;;;;;;5.87;3.72;;;;;;;8.60;50.12;96791.63;1763541;79;22273;-80
2021/05/09 01:09:55;;;;;;;5.70;4.22;;;;;;;8.61;50.07;96792.44;1829348;76;28349;-80
2021/05/09 01:12:32;;;;;;;5.90;4.72;;;;;;;8.70;49.71;96788.90;1804605;79;28088;-80
2021/05/09 01:15:10;;;;;;;6.10;4.50;;;;;;;8.81;49.84;96789.09;1802487;77;38197;-80
2021/05/09 01:17:45;;;;;;;4.92;4.20;;;;;;;8.88;49.71;96788.75;1833586;76;22292;-80
2021/05/09 01:20:33;;;;;;;4.60;3.40;;;;;;;8.82;50.02;96786.82;1814419;77;22568;-80
2021/05/09 01:23:09;;;;;;;5.62;3.90;;;;;;;8.77;49.92;96795.53;1779438;79;22867;-80
2021/05/09 01:25:46;;;;;;;4.85;3.27;;;;;;;8.75;49.68;96789.70;1789892;77;22571;-80
2021/05/09 01:28:22;;;;;;;5.53;3.45;;;;;;;8.71;49.80;96787.44;1821409;79;22828;-80
2021/05/09 01:30:55;;;;;;;4.53;2.62;;;;;;;8.74;49.72;96794.08;1819713;77;23236;-80
2021/05/09 01:33:32;;;;;;;5.10;4.15;;;;;;;8.73;49.77;96784.20;1787075;79;28140;-80
2021/05/09 01:36:07;;;;;;;6.00;3.10;;;;;;;8.81;49.75;96795.56;1837204;77;22456;-80
2021/05/09 01:38:43;;;;;;;5.27;4.63;;;;;;;8.80;49.53;96782.28;1823877;77;38732;-80
2021/05/09 01:41:19;;;;;;;6.90;4.37;;;;;;;8.87;49.43;96780.66;1833358;76;28239;-80
2021/05/09 01:43:55;;;;;;;3.90;3.40;;;;;;;8.96;49.26;96771.93;1826542;77;22493;-80
2021/05/09 01:46:32;;;;;;;6.17;4.33;;;;;;;8.92;49.43;96781.78;1782801;79;28372;-81
2021/05/09 01:49:05;;;;;;;4.87;3.52;;;;;;;8.97;49.07;96779.55;1790004;79;22858;-80
2021/05/09 01:51:41;;;;;;;5.08;3.27;;;;;;;8.95;49.65;96771.61;1763935;79;22311;-80
2021/05/09 01:54:14;;;;;;;4.42;3.10;;;;;;;8.89;49.82;96777.42;1813595;78;22645;-80
2021/05/09 01:56:52;;;;;;;5.25;4.37;;;;;;;8.82;49.78;96773.86;1815052;77;28099;-80
2021/05/09 01:59:30;;;;;;;5.65;3.33;;;;;;;8.85;49.41;96773.53;1797902;78;22372;-80
2021/05/09 02:02:05;;;;;;;4.37;3.22;;;;;;;8.81;49.50;96774.34;1812931;78;22573;-80
2021/05/09 02:04:39;;;;;;;3.52;2.90;;;;;;;8.80;49.67;96774.52;1813255;78;22448;-80
2021/05/09 02:07:15;;;;;;;4.85;3.08;;;;;;;8.78;49.74;96775.94;1764783;79;22413;-80
2021/05/09 02:09:48;;;;;;;4.65;3.00;;;;;;;8.72;49.97;96765.75;1809058;77;22713;-80
2021/05/09 02:12:25;;;;;;;5.95;4.50;;;;;;;8.68;49.79;96781.30;1805339;79;28053;-80
2021/05/09 02:14:58;;;;;;;4.72;2.98;;;;;;;8.78;49.59;96772.05;1824661;77;22764;-80
2021/05/09 02:17:35;;;;;;;5.65;4.17;;;;;;;8.83;49.59;96760.74;1788668;77;27996;-80
2021/05/09 02:20:12;;;;;;;6.28;3.98;;;;;;;8.91;49.39;96765.91;1828835;76;28337;-80
2021/05/09 02:22:49;;;;;;;4.35;3.22;;;;;;;9.03;48.98;96765.11;1821379;78;22442;-80
2021/05/09 02:25:22;;;;;;;4.30;3.08;;;;;;;9.05;48.89;96765.76;1823323;77;22637;-80
2021/05/09 02:27:59;;;;;;;5.65;4.10;;;;;;;9.04;48.78;96761.55;1820381;77;28311;-80
2021/05/09 02:30:35;;;;;;;5.05;3.25;;;;;;;9.11;48.65;96767.72;1761558;79;22648;-80
2021/05/09 02:33:14;;;;;;;5.58;3.77;;;;;;;9.10;48.74;96775.14;1780883;79;23063;-80
2021/05/09 02:35:48;;;;;;;4.80;3.30;;;;;;;9.07;48.92;96770.77;1762299;79;22457;-80
2021/05/09 02:38:25;;;;;;;5.70;4.10;;;;;;;9.02;48.04;96761.71;1783202;78;28078;-80
2021/05/09 02:41:01;;;;;;;6.67;4.30;;;;;;;9.10;48.23;96764.77;1782678;79;27989;-80
2021/05/09 02:43:35;;;;;;;5.75;3.60;;;;;;;9.17;47.88;96758.47;1798849;79;22396;-82
2021/05/09 02:46:12;;;;;;;4.92;3.67;;;;;;;9.13;47.99;96761.07;1792229;78;28173;-82
2021/05/09 02:48:45;;;;;;;4.55;3.30;;;;;;;9.18;47.80;96758.30;1813378;77;22384;-82
2021/05/09 02:51:21;;;;;;;6.10;3.65;;;;;;;9.13;47.69;96755.88;1767858;79;22269;-82
2021/05/09 02:53:57;;;;;;;5.20;2.87;;;;;;;9.13;47.57;96754.59;1759746;79;22544;-82
2021/05/09 02:56:35;;;;;;;3.70;3.22;;;;;;;9.10;47.52;96747.92;1819381;78;22574;-82
2021/05/09 02:59:11;;;;;;;4.62;3.45;;;;;;;9.10;47.62;96750.52;1758040;79;22364;-82
2021/05/09 03:01:46;;;;;;;4.00;2.87;;;;;;;9.05;47.75;96746.80;1813996;77;22736;-82
2021/05/09 03:04:23;;;;;;;5.22;3.80;;;;;;;9.02;47.66;96742.27;1780942;77;28328;-82
2021/05/09 03:06:57;;;;;;;4.65;3.08;;;;;;;9.09;47.75;96752.78;1819358;78;22248;-82
2021/05/09 03:09:33;;;;;;;3.98;3.05;;;;;;;9.09;47.50;96757.16;1781995;77;28117;-81
2021/05/09 03:12:10;;;;;;;4.70;3.55;;;;;;;9.15;47.42;96743.56;1781551;79;28280;-82
2021/05/09 03:14:47;;;;;;;5.10;3.58;;;;;;;9.24;47.09;96747.75;1782543;77;28232;-82
2021/05/09 03:17:23;;;;;;;5.08;3.80;;;;;;;9.32;47.47;96743.38;1738864;79;28559;-82
2021/05/09 03:20:04;;;;;;;4.35;3.27;;;;;;;9.38;47.62;96756.16;1777949;79;22345;-82
2021/05/09 03:22:39;;;;;;;4.50;3.42;;;;;;;9.30;47.77;96758.30;1807419;78;28406;-82
2021/05/09 03:25:13;;;;;;;3.80;2.85;;;;;;;9.33;47.68;96761.04;1799144;77;22675;-82
2021/05/09 03:27:51;;;;;;;2.75;2.30;;;;;;;9.28;47.49;96755.06;1771239;79;22585;-81
2021/05/09 03:30:27;;;;;;;4.45;3.10;;;;;;;9.29;47.57;96756.68;1826838;77;28077;-82
2021/05/09 03:33:04;;;;;;;3.65;3.10;;;;;;;9.33;47.64;96755.86;1829444;76;38660;-82
2021/05/09 03:35:40;;;;;;;4.50;3.33;;;;;;;9.41;47.36;96748.05;1806007;77;28009;-80
2021/05/09 03:38:13;;;;;;;3.75;2.60;;;;;;;9.49;47.50;96757.61;1829391;77;22507;-80
2021/05/09 03:40:48;;;;;;;3.62;2.25;;;;;;;9.46;47.25;96757.46;1801538;77;22321;-80
2021/05/09 03:43:25;;;;;;;3.67;2.90;;;;;;;9.46;47.54;96759.24;1831737;76;28120;-80
2021/05/09 03:46:02;;;;;;;3.80;2.80;;;;;;;9.52;47.57;96756.78;1789260;79;28141;-80
2021/05/09 03:48:37;;;;;;;4.92;3.05;;;;;;;9.63;47.67;96764.72;1756482;79;22317;-80
2021/05/09 03:51:13;;;;;;;3.58;2.80;;;;;;;9.60;47.80;96766.35;1805708;78;28144;-80
2021/05/09 03:53:56;;;;;;;3.17;2.47;;;;;;;9.68;47.38;96765.51;1808834;78;22523;-80
2021/05/09 03:56:29;;;;;;;2.77;2.20;;;;;;;9.67;47.43;96759.51;1770376;79;22366;-80
2021/05/09 03:59:05;;;;;;;3.58;2.62;;;;;;;9.69;47.47;96763.23;1823248;77;22620;-80
2021/05/09 04:01:42;;;;;;;3.95;2.90;;;;;;;9.69;47.39;96760.64;1793971;77;28131;-80
2021/05/09 04:04:20;;;;;;;4.33;2.27;;;;;;;9.76;47.59;96766.30;1817616;77;22088;-80
2021/05/09 04:06:56;;;;;;;3.75;1.77;;;;;;;9.75;47.32;96757.36;1814599;77;22212;-80
2021/05/09 04:09:32;;;;;;;3.12;2.08;;;;;;;9.74;47.26;96760.94;1759742;79;22353;-81
2021/05/09 04:12:10;;;;;;;3.12;2.25;;;;;;;9.75;47.13;96774.23;1794583;77;27996;-80
2021/05/09 04:14:47;;;;;;;2.60;2.10;;;;;;;9.82;47.22;96765.62;1762857;79;22405;-81
2021/05/09 04:17:24;;;;;;;2.45;1.90;;;;;;;9.83;47.23;96771.14;1795371;77;22645;-81
2021/05/09 04:20:00;;;;;;;2.72;2.30;;;;;;;9.82;47.31;96766.12;1807950;78;28427;-80
2021/05/09 04:22:37;;;;;;;2.50;1.85;;;;;;;9.90;47.24;96768.67;1844826;76;22196;-80
2021/05/09 04:25:13;;;;;;;2.75;2.00;;;;;;;9.92;46.72;96766.70;1820153;78;22970;-80
2021/05/09 04:27:51;;;;;;;4.53;2.00;;;;;;;9.98;46.82;96761.36;1781268;79;22609;-81
2021/05/09 04:30:25;;;;;;;3.95;2.30;;;;;;;10.01;46.71;96760.52;1819647;77;22544;-81
2021/05/09 04:33:04;;;;;;;2.55;1.62;;;;;;;10.06;46.92;96762.61;1844561;76;22396;-80
2021/05/09 04:35:45;;;;;;;2.62;2.00;;;;;;;10.11;46.80;96765.03;1761809;79;22209;-81
2021/05/09 04:38:19;;;;;;;2.40;1.77;;;;;;;10.16;46.35;96764.03;1811968;78;22729;-80
2021/05/09 04:40:55;;;;;;;2.70;2.10;;;;;;;10.21;46.33;96763.55;1844676;76;28083;-80
2021/05/09 04:43:34;;;;;;;3.45;2.30;;;;;;;10.31;46.20;96777.63;1781137;77;28108;-80
2021/05/09 04:46:10;;;;;;;3.35;2.00;;;;;;;10.42;46.08;96775.95;1769341;79;22318;-80
2021/05/09 04:48:47;;;;;;;2.55;1.92;;;;;;;10.41;45.36;96771.25;1802726;79;28223;-80
2021/05/09 04:51:24;;;;;;;2.52;2.00;;;;;;;10.48;45.38;96773.96;1791833;79;28091;-80
2021/05/09 04:54:01;;;;;;;2.33;1.70;;;;;;;10.56;45.27;96768.70;1794897;79;22341;-80
2021/05/09 04:56:37;;;;;;;2.20;1.60;;;;;;;10.53;45.45;96772.95;1840985;77;22923;-80
2021/05/09 04:59:16;;;;;;;2.42;1.90;;;;;;;10.51;45.31;96772.31;1760265;79;23224;-80
2021/05/09 05:01:52;;;;;;;4.35;1.47;;;;;;;10.48;45.65;96776.07;1808151;79;22322;-80
2021/05/09 05:04:27;;;;;;;2.27;1.42;;;;;;;10.45;45.21;96791.20;1815627;77;22986;-80
2021/05/09 05:07:00;;;;;;;2.62;1.67;;;;;;;10.50;45.02;96781.90;1820022;78;22738;-80
2021/05/09 05:09:41;;;;;;;2.15;1.77;;;;;;;10.56;45.06;96773.91;1844605;77;23213;-82
2021/05/09 05:12:17;;;;;;;1.95;1.70;;;;;;;10.57;44.98;96772.92;1825717;77;22645;-82
2021/05/09 05:14:57;;;;;;;2.30;1.90;;;;;;;10.62;45.47;96784.12;1826815;76;27980;-82
2021/05/09 05:17:34;;;;;;;4.78;3.45;;;;;;;10.72;44.47;96771.69;1751889;79;22468;-81
2021/05/09 05:20:11;;;;;;;4.28;2.90;;;;;;;10.76;44.64;96766.48;1849247;76;22296;-82
2021/05/09 05:22:51;;;;;;;6.12;3.90;;;;;;;10.81;44.46;96763.67;1821171;78;22881;-81
2021/05/09 05:25:28;;;;;;;3.72;2.72;;;;;;;10.85;44.12;96772.42;1778111;79;22777;-82
2021/05/09 05:28:05;;;;;;;3.30;2.35;;;;;;;10.90;44.18;96772.70;1812577;78;23008;-82
2021/05/09 05:30:41;;;;;;;2.72;2.37;;;;;;;10.95;44.23;96769.11;1762708;79;22253;-82
2021/05/09 05:33:31;;;;;;;9.30;6.15;;;;;;;10.98;43.78;96772.16;1808385;78;28138;-82
2021/05/09 05:36:08;;;;;;;13.90;8.58;;;;;;;11.11;44.07;96767.19;1837939;77;22577;-82
2021/05/09 05:38:45;;;;;;;10.08;5.72;;;;;;;11.18;43.46;96760.78;1781586;79;22279;-82
2021/05/09 05:41:21;;;;;;;18.40;8.63;;;;;;;11.23;43.20;96764.98;1759766;79;22405;-82
2021/05/09 05:43:58;;;;;;;17.07;9.13;;;;;;;11.27;43.44;96753.72;1766007;79;28253;-82
2021/05/09 05:46:35;;;;;;;4.03;2.70;;;;;;;11.40;42.57;96760.44;1820243;77;22955;-82
2021/05/09 05:49:10;;;;;;;7.58;3.83;;;;;;;11.45;42.28;96756.80;1820678;77;22745;-82
2021/05/09 05:51:47;;;;;;;7.28;4.78;;;;;;;11.51;42.91;96764.38;1787983;79;28402;-82
2021/05/09 05:54:25;;;;;;;6.72;4.67;;;;;;;11.67;42.50;96752.50;1782803;77;28271;-82
2021/05/09 05:57:01;;;;;;;3.35;2.22;;;;;;;11.84;42.82;96759.17;1821697;79;22370;-82
2021/05/09 05:59:37;;;;;;;1.98;1.52;;;;;;;11.91;41.59;96752.77;1844753;76;22237;-82
2021/05/09 06:02:14;;;;;;;3.10;2.10;;;;;;;11.97;41.94;96769.77;1788356;79;28322;-82
2021/05/09 06:04:51;;;;;;;2.67;1.80;;;;;;;12.11;41.18;96753.01;1844970;76;22182;-82
2021/05/09 06:07:29;;;;;;;3.15;1.85;;;;;;;12.17;41.18;96761.39;1828301;77;28371;-82
2021/05/09 06:10:06;;;;;;;2.83;1.80;;;;;;;12.29;40.81;96752.12;1823295;77;22821;-82
2021/05/09 06:12:42;;;;;;;2.08;1.60;;;;;;;12.39;40.62;96754.45;1835520;77;28277;-82
2021/05/09 06:15:19;;;;;;;2.60;2.05;;;;;;;12.56;40.80;96754.53;1777808;79;28022;-82
2021/05/09 06:17:57;;;;;;;2.77;1.50;;;;;;;12.75;40.02;96746.09;1763257;79;22905;-82
2021/05/09 06:20:33;;;;;;;2.50;1.80;;;;;;;12.79;39.10;96758.25;1794072;78;28356;-82
2021/05/09 06:23:13;;;;;;;2.52;1.57;;;;;;;12.88;40.18;96758.45;1813160;78;22429;-82
2021/05/09 06:25:50;;;;;;;2.00;1.50;;;;;;;12.91;39.82;96750.25;1742450;79;28158;-82
2021/05/09 06:28:27;;;;;;;1.60;1.05;;;;;;;13.05;39.73;96743.35;1821419;77;22455;-82
2021/05/09 06:31:03;;;;;;;2.30;1.62;;;;;;;13.11;39.27;96749.92;1827978;76;28112;-82
2021/05/09 06:33:40;;;;;;;2.17;1.57;;;;;;;13.21;39.47;96745.22;1784454;77;28347;-82
2021/05/09 06:36:13;;;;;;;2.42;1.10;;;;;;;13.41;39.72;96749.78;1775514;79;22555;-82
2021/05/09 06:39:09;;;;;;;2.58;1.42;;;;;;;13.46;39.07;96746.09;1796544;78;22506;-82
2021/05/09 06:41:45;;;;;;;2.20;1.40;;;;;;;13.48;39.79;96748.00;1792050;77;28101;-82
2021/05/09 06:44:22;;;;;;;1.85;1.40;;;;;;;13.63;39.57;96755.23;1789354;77;27956;-82
2021/05/09 06:46:56;;;;;;;2.47;1.05;;;;;;;13.78;39.03;96741.57;1792842;77;22373;-82
2021/05/09 06:49:32;;;;;;;2.05;1.30;;;;;;;13.79;38.00;96745.80;1785986;77;28320;-82
2021/05/09 06:52:06;;;;;;;2.58;1.10;;;;;;;13.90;38.60;96748.88;1825616;76;22525;-82
2021/05/09 06:54:43;;;;;;;2.60;1.35;;;;;;;13.93;38.79;96747.98;1798768;77;27980;-82
2021/05/09 06:57:19;;;;;;;1.92;1.50;;;;;;;14.06;37.68;96753.77;1790597;77;28100;-82
2021/05/09 06:59:56;;;;;;;2.80;1.80;;;;;;;14.23;38.79;96751.12;1790206;78;28018;-82
2021/05/09 07:02:33;;;;;;;1.82;1.52;;;;;;;14.45;38.86;96754.45;1831285;77;22835;-82
2021/05/09 07:05:08;;;;;;;1.35;1.00;;;;;;;14.50;37.47;96755.98;1759961;79;22526;-82
2021/05/09 07:07:51;;;;;;;2.02;1.22;;;;;;;14.49;38.45;96750.45;1819253;78;22659;-82
2021/05/09 07:10:28;;;;;;;2.05;1.42;;;;;;;14.52;38.35;96743.52;1814922;77;22890;-82
2021/05/09 07:13:11;;;;;;;1.40;1.10;;;;;;;14.56;38.36;96741.31;1819363;78;22531;-80
2021/05/09 07:15:45;;;;;;;1.92;1.10;;;;;;;14.57;38.18;96742.92;1766440;79;22488;-81
2021/05/09 07:18:24;;;;;;;1.90;1.15;;;;;;;14.59;37.64;96752.17;1792154;78;22466;-81
2021/05/09 07:21:01;;;;;;;1.65;1.10;;;;;;;14.58;38.58;96738.80;1784113;79;22453;-81
2021/05/09 07:23:38;;;;;;;1.55;1.00;;;;;;;14.63;38.55;96740.30;1791926;77;22889;-81
2021/05/09 07:26:15;;;;;;;1.30;0.80;;;;;;;14.71;38.56;96742.75;1768583;79;22937;-81
2021/05/09 07:28:52;;;;;;;2.08;1.15;;;;;;;14.76;37.87;96738.22;1819673;77;22297;-81
2021/05/09 07:31:28;;;;;;;2.20;1.20;;;;;;;14.78;38.20;96747.17;1833614;77;28026;-81
2021/05/09 07:34:04;;;;;;;1.70;0.97;;;;;;;14.93;38.96;96747.30;1766941;79;38340;-81
2021/05/09 07:36:40;;;;;;;1.47;0.88;;;;;;;15.14;38.46;96750.25;1782627;79;22506;-81
2021/05/09 07:39:16;;;;;;;1.32;1.00;;;;;;;15.24;37.68;96745.41;1779029;79;23022;-81
2021/05/09 07:41:50;;;;;;;1.25;0.90;;;;;;;15.32;38.10;96747.03;1758220;79;22966;-81
2021/05/09 07:44:23;;;;;;;1.37;0.70;;;;;;;15.36;36.83;96743.50;1784428;79;22992;-81
2021/05/09 07:46:58;;;;;;;2.02;0.90;;;;;;;15.41;36.97;96733.21;1770442;79;22848;-81
2021/05/09 07:49:33;;;;;;;1.65;1.00;;;;;;;15.51;37.49;96731.80;1745817;79;28462;-81
2021/05/09 07:52:09;;;;;;;1.95;1.17;;;;;;;15.67;37.05;96746.31;1822769;77;22867;-81
2021/05/09 07:54:45;;;;;;;1.42;0.90;;;;;;;15.74;37.48;96743.66;1777201;79;22873;-81
2021/05/09 07:57:21;;;;;;;1.10;0.80;;;;;;;15.81;36.75;96735.30;1791756;77;28111;-81
2021/05/09 07:59:58;;;;;;;2.08;0.90;;;;;;;15.96;36.68;96743.72;1831244;76;38475;-81
2021/05/09 08:02:35;;;;;;;1.55;0.72;;;;;;;16.13;36.40;96730.45;1816020;78;21178;-81
2021/05/09 08:05:12;;;;;;;1.30;0.90;;;;;;;16.23;36.61;96729.99;1784460;77;27991;-81
2021/05/09 08:07:55;;;;;;;1.92;1.20;;;;;;;16.46;36.85;96732.92;1820247;76;28079;-81
2021/05/09 08:10:38;;;;;;;1.37;1.00;;;;;;;16.71;36.16;96729.57;1758072;79;22337;-81
2021/05/09 08:13:15;;;;;;;1.67;0.90;;;;;;;16.82;37.24;96732.84;1810548;77;22409;-81
2021/05/09 08:15:52;;;;;;;2.02;1.00;;;;;;;16.95;36.07;96730.13;1801903;77;27890;-82
2021/05/09 08:18:28;;;;;;;1.30;0.95;;;;;;;17.08;36.03;96726.09;1778530;79;28592;-82
2021/05/09 08:21:05;;;;;;;1.47;0.90;;;;;;;17.33;36.16;96736.58;1805265;77;27874;-82
2021/05/09 08:23:44;;;;;;;1.62;1.00;;;;;;;17.54;35.36;96730.12;1782231;79;28116;-82
2021/05/09 08:26:21;;;;;;;1.32;0.90;;;;;;;17.75;35.46;96738.16;1820068;79;22457;-82
2021/05/09 08:28:59;;;;;;;1.85;0.90;;;;;;;17.76;35.45;96722.67;1760434;79;22945;-82
2021/05/09 08:31:36;;;;;;;2.90;1.37;;;;;;;17.88;35.99;96727.98;1772276;79;22339;-82
2021/05/09 08:34:13;;;;;;;1.25;0.95;;;;;;;17.99;35.22;96727.27;1821783;77;22296;-83
2021/05/09 08:36:49;;;;;;;2.47;1.00;;;;;;;18.03;35.24;96740.77;1793304;79;28148;-82
2021/05/09 08:39:26;;;;;;;1.45;1.10;;;;;;;18.20;35.00;96737.32;1782080;77;27982;-82
2021/05/09 08:42:02;;;;;;;1.22;0.95;;;;;;;18.41;35.14;96737.39;1774161;77;27956;-82
2021/05/09 08:44:39;;;;;;;1.47;0.98;;;;;;;18.59;35.15;96740.48;1787429;77;27978;-82
2021/05/09 08:47:21;;;;;;;1.10;0.82;;;;;;;18.73;35.57;96742.46;1776194;79;28639;-82
2021/05/09 08:49:54;;;;;;;2.17;1.02;;;;;;;18.90;35.10;96740.80;1819587;78;22486;-82
2021/05/09 08:52:31;;;;;;;2.10;0.90;;;;;;;18.97;34.78;96733.58;1800803;77;28152;-82
2021/05/09 08:55:11;;;;;;;2.05;0.60;;;;;;;19.09;35.20;96731.78;1793206;77;22217;-82
2021/05/09 08:57:45;;;;;;;1.02;0.72;;;;;;;19.13;35.63;96734.76;1782253;79;22429;-82
2021/05/09 09:00:23;;;;;;;1.92;0.90;;;;;;;19.16;35.55;96738.25;1827478;76;28086;-82
2021/05/09 09:03:04;;;;;;;0.82;0.65;;;;;;;19.33;35.32;96734.43;1764918;79;22698;-83
2021/05/09 09:05:46;;;;;;;2.00;1.02;;;;;;;19.39;35.22;96737.48;1780774;79;22915;-83
2021/05/09 09:08:22;;;;;;;1.92;0.88;;;;;;;19.38;34.77;96739.32;1762195;79;22534;-83
2021/05/09 09:10:58;;;;;;;1.52;0.90;;;;;;;19.37;35.06;96746.14;1827901;76;28323;-83
2021/05/09 09:13:35;;;;;;;1.42;0.80;;;;;;;19.47;34.82;96748.99;1799440;79;22200;-83
2021/05/09 09:16:15;;;;;;;1.35;0.80;;;;;;;19.44;34.74;96746.82;1812183;77;22738;-83
2021/05/09 09:18:52;;;;;;;1.85;0.65;;;;;;;19.40;33.93;96746.48;1771148;79;22396;-82
2021/05/09 09:21:30;;;;;;;1.15;0.60;;;;;;;19.35;34.36;96747.66;1822183;78;22493;-83
2021/05/09 09:24:11;;;;;;;1.80;0.82;;;;;;;19.32;34.33;96753.39;1774530;79;22640;-83
2021/05/09 09:26:51;;;;;;;2.75;1.02;;;;;;;19.30;34.17;96749.38;1763960;79;22453;-83
2021/05/09 09:29:30;;;;;;;1.95;0.62;;;;;;;19.33;35.00;96748.92;1826882;76;22426;-83
2021/05/09 09:32:11;;;;;;;2.30;0.98;;;;;;;19.34;35.24;96749.20;1781250;79;22702;-82
2021/05/09 09:34:54;;;;;;;1.60;1.00;;;;;;;19.40;35.58;96746.48;1774716;78;38504;-83
2021/05/09 09:37:33;;;;;;;2.02;0.82;;;;;;;19.53;34.62;96744.66;1781319;79;22816;-83
2021/05/09 09:40:10;;;;;;;1.70;1.30;;;;;;;19.46;34.54;96733.70;1790015;79;22431;-83
2021/05/09 09:42:48;;;;;;;1.60;0.95;;;;;;;19.45;35.82;96739.20;1781505;79;22465;-82
2021/05/09 09:45:28;;;;;;;2.02;0.80;;;;;;;19.55;35.80;96741.30;1753095;79;22337;-83
2021/05/09 09:48:06;;;;;;;1.90;1.02;;;;;;;19.65;35.52;96733.61;1781696;79;22559;-83
2021/05/09 09:50:47;;;;;;;1.95;1.10;;;;;;;19.74;36.06;96733.04;1803690;77;28077;-83
2021/05/09 09:53:39;;;;;;;1.60;1.00;;;;;;;19.92;35.91;96728.66;1774955;79;22320;-83
2021/05/09 09:56:24;;;;;;;1.40;0.93;;;;;;;19.90;35.71;96724.14;1782082;79;22546;-82
2021/05/09 09:59:03;;;;;;;0.88;0.65;;;;;;;19.89;34.94;96721.22;1843284;77;22254;-82
2021/05/09 10:01:40;;;;;;;1.67;0.68;;;;;;;19.95;35.46;96715.80;1763021;79;22580;-83
2021/05/09 10:04:17;;;;;;;1.10;0.72;;;;;;;19.95;33.58;96716.32;1790325;79;22265;-83
2021/05/09 10:06:54;;;;;;;1.67;0.80;;;;;;;19.86;34.32;96715.89;1822064;77;28102;-83
2021/05/09 10:09:27;;;;;;;2.05;1.22;;;;;;;19.98;34.40;96711.38;1810572;78;22303;-83
2021/05/09 10:12:03;;;;;;;5.35;3.67;;;;;;;20.03;35.11;96710.70;1765615;79;22473;-83
2021/05/09 10:14:39;;;;;;;2.15;1.50;;;;;;;20.08;36.19;96716.06;1766113;79;28220;-83
2021/05/09 10:17:15;;;;;;;1.87;1.07;;;;;;;20.24;34.36;96708.73;1821183;77;22098;-83
2021/05/09 10:19:52;;;;;;;2.30;1.42;;;;;;;20.27;34.60;96714.86;1813236;77;22531;-83
2021/05/09 10:22:37;;;;;;;5.65;4.42;;;;;;;20.33;35.31;96709.15;1821880;78;22883;-83
2021/05/09 10:25:16;;;;;;;1.80;1.45;;;;;;;20.42;36.03;96710.94;1821999;78;23063;-83
2021/05/09 10:27:53;;;;;;;1.77;1.30;;;;;;;20.48;35.82;96713.95;1812133;78;22482;-83
2021/05/09 10:30:43;;;;;;;1.53;1.10;;;;;;;20.45;34.88;96715.74;1805436;77;27722;-83
2021/05/09 10:33:42;;;;;;;1.60;1.00;;;;;;;20.55;34.89;96717.27;1819174;77;22421;-83
2021/05/09 10:36:24;;;;;;;1.57;0.72;;;;;;;20.53;35.14;96714.06;1827182;76;23072;-83
2021/05/09 10:39:16;;;;;;;1.90;1.17;;;;;;;20.60;34.68;96721.30;1815723;78;22613;-83
2021/05/09 10:41:59;;;;;;;1.20;0.60;;;;;;;20.65;35.23;96722.19;1818347;77;22399;-82
2021/05/09 10:44:46;;;;;;;1.72;0.70;;;;;;;20.70;34.77;96714.89;1763177;79;22743;-82
2021/05/09 10:50:21;;;;;;;1.17;0.90;;;;;;;20.74;35.02;96713.38;1814372;77;22378;-82
2021/05/09 10:53:03;;;;;;;1.42;0.80;;;;;;;20.78;35.46;96715.02;1804810;78;22594;-82
2021/05/09 10:55:45;;;;;;;1.55;0.75;;;;;;;20.85;34.78;96720.96;1775118;78;28150;-82
2021/05/09 10:58:45;;;;;;;1.70;0.70;;;;;;;20.94;34.29;96718.99;1760635;79;22264;-82
2021/05/09 11:01:33;;;;;;;6.22;2.83;;;;;;;20.91;33.50;96712.88;1835932;77;22729;-81
2021/05/09 11:04:12;;;;;;;3.70;1.80;;;;;;;20.84;34.28;96710.92;1827797;76;28294;-82
2021/05/09 11:06:50;;;;;;;1.80;1.40;;;;;;;20.95;34.60;96707.39;1767541;79;22060;-82
2021/05/09 11:09:33;;;;;;;1.85;0.88;;;;;;;20.99;35.54;96703.77;1811206;77;22354;-83
2021/05/09 11:12:08;;;;;;;2.05;1.02;;;;;;;21.04;34.32;96699.08;1781392;79;23258;-83
2021/05/09 11:14:45;;;;;;;1.75;1.00;;;;;;;21.01;35.14;96702.21;1834689;76;28225;-83
2021/05/09 11:17:21;;;;;;;0.93;0.75;;;;;;;21.20;35.23;96704.36;1808709;77;22090;-83
2021/05/09 11:19:57;;;;;;;3.08;1.50;;;;;;;21.23;34.10;96714.45;1804458;77;27886;-83
2021/05/09 11:22:34;;;;;;;4.92;3.67;;;;;;;21.26;34.16;96709.23;1828194;76;28212;-83
2021/05/09 11:25:11;;;;;;;5.50;4.33;;;;;;;21.41;34.88;96709.46;1781240;79;22566;-83
2021/05/09 11:27:47;;;;;;;1.75;1.12;;;;;;;21.45;35.13;96708.45;1782939;78;28307;-83
2021/05/09 11:30:34;;;;;;;1.72;1.05;;;;;;;21.62;34.12;96703.93;1819233;78;22649;-83
2021/05/09 11:33:10;;;;;;;2.55;0.57;;;;;;;21.63;33.72;96700.77;1840772;77;22413;-83
2021/05/09 11:35:47;;;;;;;2.00;0.70;;;;;;;21.49;33.75;96696.37;1781943;77;28322;-83
2021/05/09 11:38:23;;;;;;;1.22;0.62;;;;;;;21.55;33.90;96698.83;1793337;79;28295;-83
2021/05/09 11:41:00;;;;;;;1.00;0.57;;;;;;;21.63;33.84;96695.47;1763447;79;22217;-83
2021/05/09 11:43:36;;;;;;;2.87;1.00;;;;;;;21.54;32.97;96685.86;1812881;77;22024;-83
2021/05/09 11:46:17;;;;;;;1.05;0.80;;;;;;;21.54;33.53;96684.53;1835684;77;22289;-83
2021/05/09 11:48:54;;;;;;;1.22;0.85;;;;;;;21.57;34.88;96686.69;1790255;78;22421;-83
2021/05/09 11:52:11;;;;;;;1.27;0.70;;;;;;;21.59;33.77;96697.81;1799203;77;22290;-83
2021/05/09 11:54:54;;;;;;;2.72;2.08;;;;;;;21.48;33.63;96688.95;1826388;77;28335;-83
2021/05/09 11:57:30;;;;;;;1.55;1.20;;;;;;;21.60;34.84;96686.71;1822394;78;22411;-83
2021/05/09 12:00:10;;;;;;;1.62;0.82;;;;;;;21.70;34.83;96684.22;1749244;79;28096;-83
2021/05/09 12:02:47;;;;;;;2.25;1.20;;;;;;;21.84;34.01;96684.14;1774725;79;22369;-83
2021/05/09 12:05:27;;;;;;;1.15;0.65;;;;;;;21.91;35.18;96688.71;1781243;79;22209;-83
2021/05/09 12:08:04;;;;;;;1.80;0.72;;;;;;;21.92;33.85;96685.55;1820460;77;27679;-84
2021/05/09 12:10:42;;;;;;;1.72;1.35;;;;;;;22.01;32.70;96682.23;1805479;77;22116;-83
2021/05/09 12:13:15;;;;;;;1.30;1.02;;;;;;;22.02;35.10;96677.73;1814667;77;22520;-83
2021/05/09 12:15:52;;;;;;;2.08;1.20;;;;;;;22.01;34.62;96669.00;1802375;78;28450;-83
2021/05/09 12:18:28;;;;;;;2.05;0.98;;;;;;;22.12;34.29;96676.55;1776849;77;27978;-83
2021/05/09 12:21:08;;;;;;;2.37;1.55;;;;;;;22.14;34.62;96669.98;1797316;79;28021;-84
2021/05/09 12:23:45;;;;;;;2.27;1.30;;;;;;;22.31;35.15;96663.81;1797044;77;22249;-84
2021/05/09 12:26:21;;;;;;;2.72;1.50;;;;;;;22.36;34.46;96662.53;1785925;77;28002;-83
2021/05/09 12:29:17;;;;;;;1.60;0.75;;;;;;;22.45;33.91;96657.04;1788029;77;28225;-83